Super Servant 4 — PJPO — position and weather

sailwx.info

Track history (hours):
 
Tides and Currents Weather Stations Pressure Air Temp Water Temp Dewpoint Dewpoint Depression Visibility Wind Speed Wind Dir Waves Ship Positions

Super Servant 4

Last reported at 2015-Apr-28 19:08 UTC. Time now 2015-May-06 11:29 UTC.
Position N 35°58' W 005°36'.

Length 139 m; beam 32 m.

Type: Cargo ship. MMSI: 306157000.

Date/timePositionNaut miles runAvg speedWind from/ knotsBaromVisibWave heightAir tempDewpointWater temp
2015-Apr-28 19:08N 35°58' W 005°36'6 9.4
2015-Apr-28 18:31N 35°59' W 005°29'8 8.2
2015-Apr-28 17:34N 36°04' W 005°21'5 5.4
2015-Apr-28 16:33N 36°06' W 005°15'9311.3
2015-Apr-28 08:19N 36°18' W 003°20'911.9
2015-Apr-28 07:33N 36°19' W 003°09'1211.9
2015-Apr-28 06:33N 36°21' W 002°54'1111.3
2015-Apr-28 05:32N 36°23' W 002°40'1111.2
2015-Apr-28 04:33N 36°24' W 002°27'1111.4
2015-Apr-28 03:33N 36°26' W 002°13'1110.7
2015-Apr-28 02:34N 36°32' W 002°02'1311.5
2015-Apr-28 01:25N 36°41' W 001°50'1011.6
2015-Apr-28 00:33N 36°47' W 001°40'1212.0
2015-Apr-27 23:33N 36°55' W 001°29'2411.9
2015-Apr-27 21:31N 37°11' W 001°06'1111.5
2015-Apr-27 20:33N 37°18' W 000°55'1111.3
2015-Apr-27 19:33N 37°27' W 000°46'1110.9
2015-Apr-27 18:33N 37°33' W 000°35'1111.2
2015-Apr-27 17:33N 37°41' W 000°25'1111.2
2015-Apr-27 16:33N 37°50' W 000°16'1111.1
2015-Apr-27 15:33N 37°58' W 000°07'1111.3
2015-Apr-27 14:33N 38°07' E 000°03'9210.1
2015-Apr-27 05:25N 39°14' E 001°23'8 8.9
2015-Apr-27 04:28N 39°20' E 001°31'8 8.9
2015-Apr-27 03:33N 39°25' E 001°39'10 9.7
2015-Apr-27 02:33N 39°31' E 001°49'1010.0
2015-Apr-27 01:33N 39°38' E 001°58'1010.1
2015-Apr-27 00:33N 39°45' E 002°08'1010.3
2015-Apr-26 23:33N 39°51' E 002°18'1110.6
2015-Apr-26 22:33N 39°59' E 002°29'1110.9
2015-Apr-26 21:33N 40°06' E 002°39'1110.8
2015-Apr-26 20:34N 40°13' E 002°50'1111.4
2015-Apr-26 19:33N 40°21' E 003°01'1111.3
2015-Apr-26 18:33N 40°28' E 003°12'1211.8
2015-Apr-26 17:33N 40°36' E 003°24'1611.6
2015-Apr-26 16:12N 40°46' E 003°39'913.4
2015-Apr-26 15:33N 40°52' E 003°48'1410.7
2015-Apr-26 14:14N 41°01' E 004°02'912.0
2015-Apr-26 13:31N 41°07' E 004°10'1212.0
2015-Apr-26 12:31N 41°15' E 004°22'1111.2
2015-Apr-26 11:31N 41°22' E 004°33'1311.4
2015-Apr-26 10:22N 41°31' E 004°47'1011.7
2015-Apr-26 09:33N 41°37' E 004°56'1210.8
2015-Apr-26 08:25N 41°46' E 005°09'1211.0
2015-Apr-26 07:19N 41°54' E 005°21'7811.5
2015-Apr-26 00:33N 42°45' E 006°39'2712.1
2015-Apr-25 22:18N 43°03' E 007°07'2112.0
2015-Apr-25 20:33N 43°17' E 007°29'2612.2
2015-Apr-25 18:24N 43°35' E 007°56'2612.3
2015-Apr-25 16:17N 43°52' E 008°23'912.2
2015-Apr-25 15:34N 43°58' E 008°31'1312.5
2015-Apr-25 14:32N 44°10' E 008°38'1212.0
2015-Apr-25 13:32N 44°22' E 008°43'4 4.3
2015-Apr-25 12:32N 44°25' E 008°47'0 0.0
2015-Apr-25 11:32N 44°25' E 008°47'0 0.0
2015-Apr-25 10:32N 44°25' E 008°47'0 0.0
2015-Apr-25 09:32N 44°25' E 008°47'0 0.0
2015-Apr-25 08:32N 44°25' E 008°47'0 0.0
2015-Apr-25 07:32N 44°25' E 008°47'0 0.0
2015-Apr-25 06:32N 44°25' E 008°47'0 0.0
2015-Apr-25 05:32N 44°25' E 008°47'0 0.0
2015-Apr-25 04:32N 44°25' E 008°47'0 0.0
2015-Apr-25 03:32N 44°25' E 008°47'0 0.0
2015-Apr-25 02:29N 44°25' E 008°47'0 0.0
2015-Apr-25 01:32N 44°25' E 008°47'0 0.0
2015-Apr-25 00:32N 44°25' E 008°47'0 0.0
2015-Apr-24 23:32N 44°25' E 008°47'0 0.0
2015-Apr-24 22:32N 44°25' E 008°47'0 0.0
2015-Apr-24 21:32N 44°25' E 008°47'0 0.0
2015-Apr-24 20:32N 44°25' E 008°47'0 0.0
2015-Apr-24 19:32N 44°25' E 008°47'0 0.0
2015-Apr-24 18:32N 44°25' E 008°47'0 0.0
2015-Apr-24 17:32N 44°25' E 008°47'0 0.0
2015-Apr-24 16:29N 44°25' E 008°47'0 0.0
2015-Apr-24 15:32N 44°25' E 008°47'0 0.0
2015-Apr-24 14:32N 44°25' E 008°47'0 0.0
2015-Apr-24 13:29N 44°25' E 008°47'0 0.0
2015-Apr-24 12:32N 44°25' E 008°47'0 0.0
2015-Apr-24 11:32N 44°25' E 008°47'0 0.0
2015-Apr-24 10:32N 44°25' E 008°47'0 0.0
2015-Apr-24 09:29N 44°25' E 008°47'0 0.0
2015-Apr-24 08:32N 44°25' E 008°47'0 0.0
2015-Apr-24 07:26N 44°25' E 008°47'0 0.0
2015-Apr-24 06:32N 44°25' E 008°47'0 0.0
2015-Apr-24 05:32N 44°25' E 008°47'0 0.1
2015-Apr-24 04:33N 44°25' E 008°47'4 3.8
2015-Apr-24 03:33N 44°22' E 008°43'9 9.2
2015-Apr-24 02:33N 44°13' E 008°39'10 9.8
2015-Apr-24 01:33N 44°04' E 008°34'10 9.6
2015-Apr-24 00:33N 43°55' E 008°30'1010.2
2015-Apr-23 23:33N 43°45' E 008°30'1110.6
2015-Apr-23 22:33N 43°34' E 008°30'1110.7
2015-Apr-23 21:33N 43°24' E 008°30'30 9.0
2015-Apr-23 18:16N 43°05' E 007°59'1710.1
2015-Apr-23 16:33N 42°57' E 007°37'1210.3
2015-Apr-23 15:23N 42°52' E 007°23'910.6
2015-Apr-23 14:33N 42°48' E 007°12'1110.7
2015-Apr-23 13:33N 42°44' E 006°58'1111.0
2015-Apr-23 12:32N 42°39' E 006°45'1010.7
2015-Apr-23 11:33N 42°35' E 006°32'1110.8
2015-Apr-23 10:33N 42°30' E 006°19'1110.7
2015-Apr-23 09:33N 42°24' E 006°07'1110.4
2015-Apr-23 08:29N 42°16' E 005°56'1110.5
2015-Apr-23 07:28N 42°09' E 005°45'1210.5
2015-Apr-23 06:19N 42°01' E 005°33'1110.4
2015-Apr-23 05:13N 41°54' E 005°21'3813.0
2015-Apr-23 02:16N 41°28' E 004°43'13 7.0
2015-Apr-23 00:26N 41°20' E 004°30'2310.2
2015-Apr-22 22:11N 41°05' E 004°07'810.0
2015-Apr-22 21:20N 40°59' E 003°59'12 9.8
2015-Apr-22 20:09N 40°51' E 003°47'710.0
2015-Apr-22 19:29N 40°47' E 003°40'1010.1
2015-Apr-22 18:33N 40°41' E 003°31'10 9.9
2015-Apr-22 17:33N 40°34' E 003°22'1010.1
2015-Apr-22 16:33N 40°27' E 003°11'1010.3
2015-Apr-22 15:33N 40°21' E 003°01'1010.4
2015-Apr-22 14:33N 40°14' E 002°51'1010.3
2015-Apr-22 13:33N 40°07' E 002°41'1110.5
2015-Apr-22 12:33N 39°60' E 002°31'1110.8
2015-Apr-22 11:33N 39°53' E 002°20'1110.8
2015-Apr-22 10:33N 39°46' E 002°10'1111.2
2015-Apr-22 09:33N 39°39' E 001°58'1111.2
2015-Apr-22 08:33N 39°31' E 001°48'1111.3
2015-Apr-22 07:33N 39°23' E 001°38'1111.2
2015-Apr-22 06:33N 39°15' E 001°28'1111.0
2015-Apr-22 05:32N 39°09' E 001°15'2811.4
2015-Apr-22 03:06N 38°48' E 000°51'4210.7
2015-Apr-21 23:11N 38°15' E 000°19'710.4
2015-Apr-21 22:31N 38°09' E 000°14'3110.3
2015-Apr-21 19:30N 37°43' W 000°08'9 9.9
2015-Apr-21 18:33N 37°36' W 000°16'9 9.5
2015-Apr-21 17:33N 37°29' W 000°23'1210.1
2015-Apr-21 16:21N 37°19' W 000°33'810.2
2015-Apr-21 15:33N 37°14' W 000°41'10 9.6
2015-Apr-21 14:33N 37°09' W 000°51'11 9.2
2015-Apr-21 13:21N 37°02' W 001°02'7 9.0
2015-Apr-21 12:33N 36°57' W 001°08'10 8.7
2015-Apr-21 11:25N 36°52' W 001°19'199 9.5
2015-Apr-20 14:31N 35°55' W 005°16'3 2.9
2015-Apr-20 13:33N 35°54' W 005°19'0 0.0
2015-Apr-20 12:32N 35°54' W 005°19'0 0.0
2015-Apr-20 11:32N 35°54' W 005°19'0 0.0
2015-Apr-20 10:32N 35°54' W 005°19'0 0.0
2015-Apr-20 09:32N 35°54' W 005°19'0 0.0
2015-Apr-20 08:32N 35°54' W 005°19'0 0.0
2015-Apr-20 07:32N 35°54' W 005°19'0 0.0
2015-Apr-20 06:29N 35°54' W 005°19'0 0.0
2015-Apr-20 05:32N 35°54' W 005°19'0 0.0
2015-Apr-20 04:32N 35°54' W 005°19'1 1.1
2015-Apr-20 03:33N 35°55' W 005°18'5 4.7
2015-Apr-20 02:33N 35°58' W 005°22'1511.7
2015-Apr-20 01:18N 35°54' W 005°40'  
Track history (hours):
 
Tides and Currents Weather Stations Pressure Air Temp Water Temp Dewpoint Dewpoint Depression Visibility Wind Speed Wind Dir Waves Ship Positions

Super Servant 4

Last reported at 2015-Apr-28 19:08 UTC. Time now 2015-May-06 11:29 UTC.
Position N 35°58' W 005°36'.

Length 139 m; beam 32 m.

Type: Cargo ship. MMSI: 306157000.

Date/timePositionNaut miles runAvg speedWind from/ knotsBaromVisibWave heightAir tempDewpointWater temp
2015-Apr-28 19:08N 35°58' W 005°36'6 9.4
2015-Apr-28 18:31N 35°59' W 005°29'8 8.2
2015-Apr-28 17:34N 36°04' W 005°21'5 5.4
2015-Apr-28 16:33N 36°06' W 005°15'9311.3
2015-Apr-28 08:19N 36°18' W 003°20'911.9
2015-Apr-28 07:33N 36°19' W 003°09'1211.9
2015-Apr-28 06:33N 36°21' W 002°54'1111.3
2015-Apr-28 05:32N 36°23' W 002°40'1111.2
2015-Apr-28 04:33N 36°24' W 002°27'1111.4
2015-Apr-28 03:33N 36°26' W 002°13'1110.7
2015-Apr-28 02:34N 36°32' W 002°02'1311.5
2015-Apr-28 01:25N 36°41' W 001°50'1011.6
2015-Apr-28 00:33N 36°47' W 001°40'1212.0
2015-Apr-27 23:33N 36°55' W 001°29'2411.9
2015-Apr-27 21:31N 37°11' W 001°06'1111.5
2015-Apr-27 20:33N 37°18' W 000°55'1111.3
2015-Apr-27 19:33N 37°27' W 000°46'1110.9
2015-Apr-27 18:33N 37°33' W 000°35'1111.2
2015-Apr-27 17:33N 37°41' W 000°25'1111.2
2015-Apr-27 16:33N 37°50' W 000°16'1111.1
2015-Apr-27 15:33N 37°58' W 000°07'1111.3
2015-Apr-27 14:33N 38°07' E 000°03'9210.1
2015-Apr-27 05:25N 39°14' E 001°23'8 8.9
2015-Apr-27 04:28N 39°20' E 001°31'8 8.9
2015-Apr-27 03:33N 39°25' E 001°39'10 9.7
2015-Apr-27 02:33N 39°31' E 001°49'1010.0
2015-Apr-27 01:33N 39°38' E 001°58'1010.1
2015-Apr-27 00:33N 39°45' E 002°08'1010.3
2015-Apr-26 23:33N 39°51' E 002°18'1110.6
2015-Apr-26 22:33N 39°59' E 002°29'1110.9
2015-Apr-26 21:33N 40°06' E 002°39'1110.8
2015-Apr-26 20:34N 40°13' E 002°50'1111.4
2015-Apr-26 19:33N 40°21' E 003°01'1111.3
2015-Apr-26 18:33N 40°28' E 003°12'1211.8
2015-Apr-26 17:33N 40°36' E 003°24'1611.6
2015-Apr-26 16:12N 40°46' E 003°39'913.4
2015-Apr-26 15:33N 40°52' E 003°48'1410.7
2015-Apr-26 14:14N 41°01' E 004°02'912.0
2015-Apr-26 13:31N 41°07' E 004°10'1212.0
2015-Apr-26 12:31N 41°15' E 004°22'1111.2
2015-Apr-26 11:31N 41°22' E 004°33'1311.4
2015-Apr-26 10:22N 41°31' E 004°47'1011.7
2015-Apr-26 09:33N 41°37' E 004°56'1210.8
2015-Apr-26 08:25N 41°46' E 005°09'1211.0
2015-Apr-26 07:19N 41°54' E 005°21'7811.5
2015-Apr-26 00:33N 42°45' E 006°39'2712.1
2015-Apr-25 22:18N 43°03' E 007°07'2112.0
2015-Apr-25 20:33N 43°17' E 007°29'2612.2
2015-Apr-25 18:24N 43°35' E 007°56'2612.3
2015-Apr-25 16:17N 43°52' E 008°23'912.2
2015-Apr-25 15:34N 43°58' E 008°31'1312.5
2015-Apr-25 14:32N 44°10' E 008°38'1212.0
2015-Apr-25 13:32N 44°22' E 008°43'4 4.3
2015-Apr-25 12:32N 44°25' E 008°47'0 0.0
2015-Apr-25 11:32N 44°25' E 008°47'0 0.0
2015-Apr-25 10:32N 44°25' E 008°47'0 0.0
2015-Apr-25 09:32N 44°25' E 008°47'0 0.0
2015-Apr-25 08:32N 44°25' E 008°47'0 0.0
2015-Apr-25 07:32N 44°25' E 008°47'0 0.0
2015-Apr-25 06:32N 44°25' E 008°47'0 0.0
2015-Apr-25 05:32N 44°25' E 008°47'0 0.0
2015-Apr-25 04:32N 44°25' E 008°47'0 0.0
2015-Apr-25 03:32N 44°25' E 008°47'0 0.0
2015-Apr-25 02:29N 44°25' E 008°47'0 0.0
2015-Apr-25 01:32N 44°25' E 008°47'0 0.0
2015-Apr-25 00:32N 44°25' E 008°47'0 0.0
2015-Apr-24 23:32N 44°25' E 008°47'0 0.0
2015-Apr-24 22:32N 44°25' E 008°47'0 0.0
2015-Apr-24 21:32N 44°25' E 008°47'0 0.0
2015-Apr-24 20:32N 44°25' E 008°47'0 0.0
2015-Apr-24 19:32N 44°25' E 008°47'0 0.0
2015-Apr-24 18:32N 44°25' E 008°47'0 0.0
2015-Apr-24 17:32N 44°25' E 008°47'0 0.0
2015-Apr-24 16:29N 44°25' E 008°47'0 0.0
2015-Apr-24 15:32N 44°25' E 008°47'0 0.0
2015-Apr-24 14:32N 44°25' E 008°47'0 0.0
2015-Apr-24 13:29N 44°25' E 008°47'0 0.0
2015-Apr-24 12:32N 44°25' E 008°47'0 0.0
2015-Apr-24 11:32N 44°25' E 008°47'0 0.0
2015-Apr-24 10:32N 44°25' E 008°47'0 0.0
2015-Apr-24 09:29N 44°25' E 008°47'0 0.0
2015-Apr-24 08:32N 44°25' E 008°47'0 0.0
2015-Apr-24 07:26N 44°25' E 008°47'0 0.0
2015-Apr-24 06:32N 44°25' E 008°47'0 0.0
2015-Apr-24 05:32N 44°25' E 008°47'0 0.1
2015-Apr-24 04:33N 44°25' E 008°47'4 3.8
2015-Apr-24 03:33N 44°22' E 008°43'9 9.2
2015-Apr-24 02:33N 44°13' E 008°39'10 9.8
2015-Apr-24 01:33N 44°04' E 008°34'10 9.6
2015-Apr-24 00:33N 43°55' E 008°30'1010.2
2015-Apr-23 23:33N 43°45' E 008°30'1110.6
2015-Apr-23 22:33N 43°34' E 008°30'1110.7
2015-Apr-23 21:33N 43°24' E 008°30'30 9.0
2015-Apr-23 18:16N 43°05' E 007°59'1710.1
2015-Apr-23 16:33N 42°57' E 007°37'1210.3
2015-Apr-23 15:23N 42°52' E 007°23'910.6
2015-Apr-23 14:33N 42°48' E 007°12'1110.7
2015-Apr-23 13:33N 42°44' E 006°58'1111.0
2015-Apr-23 12:32N 42°39' E 006°45'1010.7
2015-Apr-23 11:33N 42°35' E 006°32'1110.8
2015-Apr-23 10:33N 42°30' E 006°19'1110.7
2015-Apr-23 09:33N 42°24' E 006°07'1110.4
2015-Apr-23 08:29N 42°16' E 005°56'1110.5
2015-Apr-23 07:28N 42°09' E 005°45'1210.5
2015-Apr-23 06:19N 42°01' E 005°33'1110.4
2015-Apr-23 05:13N 41°54' E 005°21'3813.0
2015-Apr-23 02:16N 41°28' E 004°43'13 7.0
2015-Apr-23 00:26N 41°20' E 004°30'2310.2
2015-Apr-22 22:11N 41°05' E 004°07'810.0
2015-Apr-22 21:20N 40°59' E 003°59'12 9.8
2015-Apr-22 20:09N 40°51' E 003°47'710.0
2015-Apr-22 19:29N 40°47' E 003°40'1010.1
2015-Apr-22 18:33N 40°41' E 003°31'10 9.9
2015-Apr-22 17:33N 40°34' E 003°22'1010.1
2015-Apr-22 16:33N 40°27' E 003°11'1010.3
2015-Apr-22 15:33N 40°21' E 003°01'1010.4
2015-Apr-22 14:33N 40°14' E 002°51'1010.3
2015-Apr-22 13:33N 40°07' E 002°41'1110.5
2015-Apr-22 12:33N 39°60' E 002°31'1110.8
2015-Apr-22 11:33N 39°53' E 002°20'1110.8
2015-Apr-22 10:33N 39°46' E 002°10'1111.2
2015-Apr-22 09:33N 39°39' E 001°58'1111.2
2015-Apr-22 08:33N 39°31' E 001°48'1111.3
2015-Apr-22 07:33N 39°23' E 001°38'1111.2
2015-Apr-22 06:33N 39°15' E 001°28'1111.0
2015-Apr-22 05:32N 39°09' E 001°15'2811.4
2015-Apr-22 03:06N 38°48' E 000°51'4210.7
2015-Apr-21 23:11N 38°15' E 000°19'710.4
2015-Apr-21 22:31N 38°09' E 000°14'3110.3
2015-Apr-21 19:30N 37°43' W 000°08'9 9.9
2015-Apr-21 18:33N 37°36' W 000°16'9 9.5
2015-Apr-21 17:33N 37°29' W 000°23'1210.1
2015-Apr-21 16:21N 37°19' W 000°33'810.2
2015-Apr-21 15:33N 37°14' W 000°41'10 9.6
2015-Apr-21 14:33N 37°09' W 000°51'11 9.2
2015-Apr-21 13:21N 37°02' W 001°02'7 9.0
2015-Apr-21 12:33N 36°57' W 001°08'10 8.7
2015-Apr-21 11:25N 36°52' W 001°19'199 9.5
2015-Apr-20 14:31N 35°55' W 005°16'3 2.9
2015-Apr-20 13:33N 35°54' W 005°19'0 0.0
2015-Apr-20 12:32N 35°54' W 005°19'0 0.0
2015-Apr-20 11:32N 35°54' W 005°19'0 0.0
2015-Apr-20 10:32N 35°54' W 005°19'0 0.0
2015-Apr-20 09:32N 35°54' W 005°19'0 0.0
2015-Apr-20 08:32N 35°54' W 005°19'0 0.0
2015-Apr-20 07:32N 35°54' W 005°19'0 0.0
2015-Apr-20 06:29N 35°54' W 005°19'0 0.0
2015-Apr-20 05:32N 35°54' W 005°19'0 0.0
2015-Apr-20 04:32N 35°54' W 005°19'1 1.1
2015-Apr-20 03:33N 35°55' W 005°18'5 4.7
2015-Apr-20 02:33N 35°58' W 005°22'1511.7
2015-Apr-20 01:18N 35°54' W 005°40'  

Dump ship's entire track history